Time;durP1;ratioP1;P1;durP2;ratioP2;P2;SDS_P1;SDS_P2;PMS_P1;PMS_P2;Temp;Humidity;BMP_temperature;BMP_pressure;BME280_temperature;BME280_humidity;BME280_pressure;Samples;Min_cycle;Max_cycle;Signal;HPM_P1;HPM_P2
2021/12/16 00:31:17;;;;;;;8.73;3.27;;;8.80;99.90;;;;;;5095814;28;20505;-86
2021/12/16 00:33:45;;;;;;;6.33;3.57;;;8.80;99.90;;;;;;5096201;28;20517;-87
2021/12/16 00:36:12;;;;;;;8.20;3.67;;;8.80;99.90;;;;;;5096549;28;20460;-86
2021/12/16 00:38:40;;;;;;;7.73;3.97;;;8.80;99.90;;;;;;5096394;28;20972;-87
2021/12/16 00:41:06;;;;;;;5.43;3.40;;;8.80;99.90;;;;;;5096483;28;20426;-86
2021/12/16 00:44:12;;;;;;;8.67;3.00;;;8.80;99.90;;;;;;5096391;28;20816;-84
2021/12/16 00:46:56;;;;;;;10.00;4.87;;;8.80;99.90;;;;;;5093524;28;20190;-86
2021/12/16 00:54:41;;;;;;;7.80;3.50;;;8.80;99.90;;;;;;5093538;28;20496;-87
2021/12/16 00:57:12;;;;;;;10.97;4.87;;;8.80;99.90;;;;;;5095715;28;20962;-87
2021/12/16 00:59:42;;;;;;;9.47;4.40;;;8.80;99.90;;;;;;5093536;28;20892;-86
2021/12/16 01:05:03;;;;;;;11.30;4.70;;;8.80;99.90;;;;;;5092943;28;20417;-88
2021/12/16 01:40:13;;;;;;;10.43;5.13;;;8.80;99.90;;;;;;5092617;28;20363;-86
2021/12/16 01:48:16;;;;;;;9.93;6.23;;;8.80;99.90;;;;;;5094453;28;20999;-85
2021/12/16 01:50:47;;;;;;;8.23;5.07;;;8.70;99.90;;;;;;5092593;28;20417;-86
2021/12/16 01:56:01;;;;;;;9.20;4.73;;;8.70;99.90;;;;;;5094878;28;20410;-87
2021/12/16 01:58:30;;;;;;;9.27;4.20;;;8.80;99.90;;;;;;5093301;28;20441;-87
2021/12/16 02:01:10;;;;;;;9.17;5.10;;;8.80;99.90;;;;;;5091857;28;20406;-85
2021/12/16 02:03:44;;;;;;;14.77;6.90;;;8.70;99.90;;;;;;5091749;28;20454;-88
2021/12/16 02:08:49;;;;;;;9.10;5.40;;;8.70;99.90;;;;;;5094861;28;20431;-89
2021/12/16 02:27:27;;;;;;;13.77;6.30;;;8.70;99.90;;;;;;5093718;28;20424;-88
2021/12/16 02:37:48;;;;;;;14.30;6.93;;;8.70;99.90;;;;;;5085019;28;20435;-87
2021/12/16 02:40:14;;;;;;;17.03;7.03;;;8.70;99.90;;;;;;5093788;28;20452;-87
2021/12/16 02:42:54;;;;;;;16.43;7.93;;;8.70;99.90;;;;;;5093597;28;20436;-85
2021/12/16 02:50:52;;;;;;;17.83;9.00;;;8.70;99.90;;;;;;5093043;28;20456;-85
2021/12/16 02:53:17;;;;;;;14.23;7.47;;;8.70;99.90;;;;;;5092549;28;20414;-87
2021/12/16 02:55:43;;;;;;;15.57;8.17;;;8.70;99.90;;;;;;5093440;28;20419;-87
2021/12/16 02:58:09;;;;;;;22.03;10.00;;;8.80;99.90;;;;;;5093474;28;20175;-85
2021/12/16 03:00:45;;;;;;;19.80;9.47;;;8.70;99.90;;;;;;5093340;28;20177;-87
2021/12/16 03:03:10;;;;;;;13.93;8.57;;;8.70;99.90;;;;;;5092991;28;21003;-86
2021/12/16 03:05:36;;;;;;;17.03;8.50;;;8.70;99.90;;;;;;5093284;28;20411;-86
2021/12/16 03:08:05;;;;;;;17.87;9.57;;;8.70;99.90;;;;;;5093366;28;20171;-87
2021/12/16 03:13:05;;;;;;;15.40;8.83;;;8.60;99.90;;;;;;5093257;28;20521;-86
2021/12/16 03:21:00;;;;;;;14.47;7.83;;;8.60;99.90;;;;;;5093089;28;20795;-86
2021/12/16 03:37:14;;;;;;;24.83;11.00;;;8.50;99.90;;;;;;5093436;28;20406;-86
2021/12/16 03:39:46;;;;;;;17.23;10.10;;;8.50;99.90;;;;;;5093296;28;20679;-87
2021/12/16 03:42:15;;;;;;;21.73;9.83;;;8.50;99.90;;;;;;5093380;28;20784;-87
2021/12/16 03:44:53;;;;;;;24.60;10.07;;;8.50;99.90;;;;;;5093121;28;20509;-88
2021/12/16 03:47:24;;;;;;;18.30;11.30;;;8.50;99.90;;;;;;5091786;28;20436;-87
2021/12/16 03:49:51;;;;;;;20.30;11.47;;;8.50;99.90;;;;;;5091936;28;20838;-87
2021/12/16 03:52:17;;;;;;;19.73;10.67;;;8.50;99.90;;;;;;5093204;28;20816;-86
2021/12/16 03:54:49;;;;;;;17.27;9.30;;;8.50;99.90;;;;;;5093088;28;20461;-87
2021/12/16 03:57:18;;;;;;;25.13;11.20;;;8.50;99.90;;;;;;5091868;28;20449;-88
2021/12/16 03:59:44;;;;;;;26.47;11.47;;;8.50;99.90;;;;;;5092070;28;20975;-88
2021/12/16 04:02:15;;;;;;;22.37;11.90;;;8.50;99.90;;;;;;5091750;28;20422;-87
2021/12/16 04:04:42;;;;;;;23.90;11.40;;;8.50;99.90;;;;;;5094378;28;20446;-86
2021/12/16 04:07:08;;;;;;;19.30;12.37;;;8.50;99.90;;;;;;5097549;28;20761;-87
2021/12/16 04:09:34;;;;;;;26.53;10.90;;;8.50;99.90;;;;;;5096961;28;20398;-87
2021/12/16 04:12:09;;;;;;;28.50;12.27;;;8.50;99.90;;;;;;5095896;28;20417;-86
2021/12/16 04:14:37;;;;;;;18.43;11.57;;;8.50;99.90;;;;;;5096961;28;20594;-86
2021/12/16 04:17:05;;;;;;;21.60;10.97;;;8.50;99.90;;;;;;5096096;28;20402;-86
2021/12/16 04:19:32;;;;;;;19.93;10.80;;;8.50;99.90;;;;;;5095671;28;20423;-84
2021/12/16 04:22:05;;;;;;;30.70;12.43;;;8.50;99.90;;;;;;5095168;28;20765;-84
2021/12/16 04:24:31;;;;;;;21.60;11.73;;;8.50;99.90;;;;;;5096856;28;20500;-87
2021/12/16 04:26:58;;;;;;;20.03;11.77;;;8.50;99.90;;;;;;5096731;28;20401;-86
2021/12/16 04:29:25;;;;;;;26.43;14.60;;;8.50;99.90;;;;;;5096713;28;20421;-86
2021/12/16 04:31:53;;;;;;;22.63;13.83;;;8.50;99.90;;;;;;5096688;28;20408;-85
2021/12/16 04:34:19;;;;;;;21.83;12.20;;;8.60;99.90;;;;;;5095536;28;20850;-86
2021/12/16 04:36:45;;;;;;;31.23;14.73;;;8.60;99.90;;;;;;5096714;28;20414;-85
2021/12/16 04:39:15;;;;;;;23.07;12.20;;;8.60;99.90;;;;;;5096488;28;20544;-85
2021/12/16 04:41:41;;;;;;;26.13;15.33;;;8.50;99.90;;;;;;5096750;28;20404;-86
2021/12/16 04:44:12;;;;;;;26.23;12.43;;;8.60;99.90;;;;;;5095197;28;20420;-85
2021/12/16 04:46:38;;;;;;;29.00;13.20;;;8.50;99.90;;;;;;5096655;28;20408;-85
2021/12/16 04:49:07;;;;;;;31.60;14.57;;;8.60;99.90;;;;;;5096200;28;20867;-86
2021/12/16 04:51:35;;;;;;;28.50;13.40;;;8.60;99.90;;;;;;5095190;28;20822;-86
2021/12/16 04:54:02;;;;;;;26.53;13.90;;;8.50;99.90;;;;;;5094868;28;20475;-86
2021/12/16 04:56:27;;;;;;;26.40;13.33;;;8.50;99.90;;;;;;5096015;28;20417;-87
2021/12/16 04:58:54;;;;;;;28.03;14.07;;;8.50;99.90;;;;;;5096265;28;20511;-86
2021/12/16 05:01:20;;;;;;;27.97;14.57;;;8.50;99.90;;;;;;5094897;28;20178;-87
2021/12/16 05:03:46;;;;;;;27.47;13.57;;;8.60;99.90;;;;;;5095693;28;20482;-87
2021/12/16 05:06:12;;;;;;;26.10;15.07;;;8.50;99.90;;;;;;5094685;28;20425;-87
2021/12/16 05:08:38;;;;;;;34.50;14.63;;;8.50;99.90;;;;;;5094702;28;20171;-86
2021/12/16 05:11:06;;;;;;;28.03;14.80;;;8.50;99.90;;;;;;5096168;28;20194;-86
2021/12/16 05:13:33;;;;;;;34.03;16.30;;;8.50;99.90;;;;;;5094466;28;20825;-87
2021/12/16 05:16:02;;;;;;;30.90;15.17;;;8.50;99.90;;;;;;5095043;28;20466;-86
2021/12/16 05:18:34;;;;;;;30.67;14.43;;;8.50;99.90;;;;;;5095353;28;20416;-86
2021/12/16 05:21:07;;;;;;;37.03;15.50;;;8.50;99.90;;;;;;5095984;28;20491;-86
2021/12/16 05:24:33;;;;;;;30.67;15.77;;;8.50;99.90;;;;;;5094508;28;20508;-86
2021/12/16 05:26:28;;;;;;;32.40;14.83;;;8.50;99.90;;;;;;5086335;28;20590;-87
2021/12/16 05:28:58;;;;;;;31.83;15.40;;;8.50;99.90;;;;;;5095675;28;20494;-87
2021/12/16 05:31:26;;;;;;;35.10;18.07;;;8.50;99.90;;;;;;5095611;28;20409;-86
2021/12/16 05:33:54;;;;;;;33.23;16.93;;;8.60;99.90;;;;;;5093738;28;20457;-86
2021/12/16 05:36:21;;;;;;;28.00;16.20;;;8.50;99.90;;;;;;5095444;28;20408;-87
2021/12/16 05:38:47;;;;;;;34.90;16.60;;;8.50;99.90;;;;;;5095253;28;20469;-86
2021/12/16 05:41:16;;;;;;;36.20;16.30;;;8.50;99.90;;;;;;5095377;28;20409;-86
2021/12/16 05:43:42;;;;;;;30.80;16.03;;;8.50;99.90;;;;;;5094221;28;20417;-86
2021/12/16 05:46:08;;;;;;;32.40;18.60;;;8.60;99.90;;;;;;5095291;28;20462;-86
2021/12/16 05:48:38;;;;;;;31.33;15.07;;;8.50;99.90;;;;;;5095004;28;20191;-86
2021/12/16 05:51:15;;;;;;;35.70;19.20;;;8.50;99.90;;;;;;5095424;28;20491;-86
2021/12/16 05:53:42;;;;;;;32.50;18.60;;;8.50;99.90;;;;;;5095312;28;20500;-87
2021/12/16 05:56:08;;;;;;;30.53;17.10;;;8.50;99.90;;;;;;5095070;28;20466;-86
2021/12/16 05:58:36;;;;;;;35.30;18.63;;;8.50;99.90;;;;;;5093765;28;20921;-85
2021/12/16 06:01:05;;;;;;;33.03;16.20;;;8.50;99.90;;;;;;5093745;28;20175;-86
2021/12/16 06:03:32;;;;;;;32.80;17.33;;;8.50;99.90;;;;;;5094529;28;20984;-86
2021/12/16 06:05:58;;;;;;;31.40;18.27;;;8.50;99.90;;;;;;5094799;28;20416;-87
2021/12/16 06:08:24;;;;;;;33.73;16.13;;;8.50;99.90;;;;;;5094797;28;20510;-87
2021/12/16 06:13:27;;;;;;;39.67;19.63;;;8.50;99.90;;;;;;5094732;28;20408;-88
2021/12/16 06:27:06;;;;;;;34.23;15.40;;;8.60;99.90;;;;;;5094769;28;20423;-87
2021/12/16 06:29:33;;;;;;;31.53;15.77;;;8.60;99.90;;;;;;5094460;28;20411;-87
2021/12/16 06:31:59;;;;;;;31.70;17.20;;;8.60;99.90;;;;;;5094106;28;20849;-86
2021/12/16 06:34:25;;;;;;;35.13;16.63;;;8.60;99.90;;;;;;5094403;28;20546;-87
2021/12/16 06:36:50;;;;;;;35.13;16.57;;;8.60;99.90;;;;;;5093256;28;20168;-87
2021/12/16 06:39:16;;;;;;;36.53;17.43;;;8.60;99.90;;;;;;5094364;28;20454;-89
2021/12/16 06:41:42;;;;;;;33.20;17.50;;;8.60;99.90;;;;;;5093267;28;20224;-87
2021/12/16 06:44:18;;;;;;;35.37;16.50;;;8.60;99.90;;;;;;5094610;28;20199;-87
2021/12/16 06:46:45;;;;;;;34.87;16.20;;;8.60;99.90;;;;;;5092651;28;20236;-86
2021/12/16 06:49:14;;;;;;;27.30;15.37;;;8.60;99.90;;;;;;5094202;28;20945;-87
2021/12/16 06:51:50;;;;;;;33.63;16.83;;;8.60;99.90;;;;;;5094430;28;20503;-87
2021/12/16 06:54:24;;;;;;;30.10;16.43;;;8.70;99.90;;;;;;5093955;28;20457;-88
2021/12/16 06:59:32;;;;;;;30.13;15.63;;;8.70;99.90;;;;;;5094305;28;20424;-88
2021/12/16 07:02:14;;;;;;;30.53;15.83;;;8.60;99.90;;;;;;5092474;28;20919;-87
2021/12/16 07:04:43;;;;;;;28.13;16.70;;;8.70;99.90;;;;;;5093842;28;20491;-87
2021/12/16 07:07:10;;;;;;;27.03;14.43;;;8.70;99.90;;;;;;5093680;28;20429;-86
2021/12/16 07:09:36;;;;;;;22.87;13.93;;;8.70;99.90;;;;;;5093402;28;20898;-86
2021/12/16 07:12:04;;;;;;;24.43;13.70;;;8.70;99.90;;;;;;5093810;28;20957;-87
2021/12/16 07:14:37;;;;;;;25.47;15.17;;;8.70;99.90;;;;;;5093707;28;20468;-86
2021/12/16 07:17:06;;;;;;;29.30;13.53;;;8.70;99.90;;;;;;5093267;28;20411;-86
2021/12/16 07:19:32;;;;;;;21.80;12.20;;;8.80;99.90;;;;;;5091813;28;20461;-86
2021/12/16 07:21:57;;;;;;;27.80;13.63;;;8.80;99.90;;;;;;5092344;28;20444;-86
2021/12/16 07:24:23;;;;;;;23.23;11.50;;;8.70;99.90;;;;;;5093863;28;20179;-87
2021/12/16 07:26:49;;;;;;;27.83;13.97;;;8.70;99.90;;;;;;5092509;28;20163;-87
2021/12/16 07:29:15;;;;;;;19.63;12.23;;;8.80;99.90;;;;;;5093551;28;20175;-87
2021/12/16 07:31:41;;;;;;;33.23;11.70;;;8.70;99.90;;;;;;5091814;28;20176;-88
2021/12/16 07:34:08;;;;;;;27.53;11.20;;;8.70;99.90;;;;;;5093443;28;21029;-85
2021/12/16 07:36:36;;;;;;;20.13;11.70;;;8.80;99.90;;;;;;5093510;28;20442;-85
2021/12/16 07:39:06;;;;;;;21.30;10.83;;;8.80;99.90;;;;;;5092683;28;20453;-86
2021/12/16 07:41:34;;;;;;;24.50;11.40;;;8.80;99.90;;;;;;5093207;28;20417;-85
2021/12/16 07:44:11;;;;;;;21.20;11.30;;;8.80;99.90;;;;;;5093126;28;20402;-85
2021/12/16 07:46:44;;;;;;;27.27;14.33;;;8.80;99.90;;;;;;5093062;28;20413;-85
2021/12/16 07:49:13;;;;;;;27.67;14.17;;;8.80;99.90;;;;;;5093367;28;20438;-84
2021/12/16 07:51:40;;;;;;;25.70;12.30;;;8.80;99.90;;;;;;5093435;28;20405;-85
2021/12/16 07:54:06;;;;;;;23.60;12.07;;;8.80;99.90;;;;;;5093267;28;20465;-84
2021/12/16 07:56:32;;;;;;;23.20;12.63;;;8.80;99.90;;;;;;5091911;28;20424;-87
2021/12/16 07:58:57;;;;;;;25.57;13.17;;;8.80;99.90;;;;;;5093210;28;20401;-86
2021/12/16 08:01:23;;;;;;;23.13;11.53;;;8.80;99.90;;;;;;5092626;28;20423;-86
2021/12/16 08:03:50;;;;;;;22.57;13.43;;;8.80;99.90;;;;;;5092948;28;20171;-84
2021/12/16 08:06:21;;;;;;;28.33;12.37;;;8.80;99.90;;;;;;5092787;28;20187;-85
2021/12/16 08:08:50;;;;;;;23.67;12.57;;;8.80;99.90;;;;;;5092948;28;20397;-84
2021/12/16 08:11:16;;;;;;;22.87;11.60;;;8.80;99.90;;;;;;5092950;28;20482;-85
2021/12/16 08:13:41;;;;;;;19.37;10.00;;;8.80;99.90;;;;;;5093132;28;20491;-84
2021/12/16 08:16:07;;;;;;;19.50;11.47;;;8.80;99.90;;;;;;5092939;28;20427;-86
2021/12/16 08:18:33;;;;;;;22.87;10.97;;;8.80;99.90;;;;;;5092723;28;20215;-85
2021/12/16 08:20:59;;;;;;;23.90;12.10;;;8.80;99.90;;;;;;5092980;28;20739;-91
2021/12/16 08:23:24;;;;;;;19.83;11.53;;;8.80;99.90;;;;;;5095579;28;20581;-93
2021/12/16 08:25:50;;;;;;;21.00;10.63;;;8.80;99.90;;;;;;5093649;28;20174;-85
2021/12/16 08:28:16;;;;;;;21.57;11.63;;;8.80;99.90;;;;;;5092930;28;20172;-85
2021/12/16 08:30:46;;;;;;;19.00;10.00;;;8.80;99.90;;;;;;5091516;28;20176;-87
2021/12/16 08:33:14;;;;;;;24.03;10.43;;;8.80;99.90;;;;;;5092371;28;20909;-87
2021/12/16 08:35:44;;;;;;;23.33;10.27;;;8.90;99.90;;;;;;5091509;28;20819;-86
2021/12/16 08:38:11;;;;;;;17.07;9.17;;;8.90;99.90;;;;;;5092553;28;20451;-86
2021/12/16 08:40:39;;;;;;;24.17;9.80;;;8.90;99.90;;;;;;5099179;28;20715;-84
2021/12/16 08:43:06;;;;;;;17.67;9.27;;;8.90;99.90;;;;;;5094265;28;20811;-85
2021/12/16 08:45:33;;;;;;;17.90;8.40;;;8.90;99.90;;;;;;5094342;28;20658;-85
2021/12/16 08:47:59;;;;;;;20.50;9.10;;;9.00;99.90;;;;;;5095341;28;20911;-85
2021/12/16 08:50:29;;;;;;;14.80;8.13;;;9.00;99.90;;;;;;5093737;28;20411;-85
2021/12/16 08:52:56;;;;;;;16.17;8.43;;;9.00;99.90;;;;;;5095633;28;20765;-87
2021/12/16 08:55:22;;;;;;;17.00;7.70;;;9.00;99.90;;;;;;5097564;28;20495;-86
2021/12/16 08:57:48;;;;;;;16.77;7.90;;;9.10;99.90;;;;;;5096970;28;20918;-87
2021/12/16 09:00:19;;;;;;;15.80;8.83;;;9.10;99.90;;;;;;5096451;28;20418;-87
2021/12/16 09:02:45;;;;;;;22.03;8.33;;;9.10;99.90;;;;;;5096419;28;20172;-87
2021/12/16 09:05:10;;;;;;;18.17;9.33;;;9.20;99.90;;;;;;5096500;28;20407;-86
2021/12/16 09:07:37;;;;;;;18.43;8.27;;;9.20;99.90;;;;;;5096035;28;20165;-87
2021/12/16 09:10:07;;;;;;;21.83;9.10;;;9.40;99.90;;;;;;5096014;28;20168;-88
2021/12/16 09:14:59;;;;;;;17.77;8.23;;;9.30;99.90;;;;;;5095928;28;20550;-86
2021/12/16 09:17:25;;;;;;;13.37;6.67;;;9.30;99.90;;;;;;5095675;28;20423;-86
2021/12/16 09:19:53;;;;;;;16.10;6.50;;;9.40;99.90;;;;;;5095942;28;20169;-88
2021/12/16 09:22:19;;;;;;;14.90;6.50;;;9.40;99.90;;;;;;5094428;28;20984;-87
2021/12/16 09:24:48;;;;;;;10.90;5.90;;;9.40;99.90;;;;;;5095632;28;20430;-86
2021/12/16 09:27:15;;;;;;;12.37;5.27;;;9.40;99.90;;;;;;5095677;28;20415;-86
2021/12/16 09:29:40;;;;;;;15.83;5.03;;;9.50;99.90;;;;;;5095588;28;20427;-87
2021/12/16 09:32:07;;;;;;;9.87;4.40;;;9.60;99.90;;;;;;5095129;28;20479;-84
2021/12/16 09:34:34;;;;;;;11.80;6.13;;;9.80;99.90;;;;;;5095593;28;20262;-88
2021/12/16 09:37:00;;;;;;;11.60;5.93;;;9.60;99.90;;;;;;5095732;28;20414;-85
2021/12/16 09:39:27;;;;;;;13.17;6.60;;;9.50;99.90;;;;;;5095395;28;20465;-87
2021/12/16 09:41:57;;;;;;;15.43;6.40;;;9.50;99.90;;;;;;5094356;28;20202;-86
2021/12/16 09:44:26;;;;;;;16.00;7.40;;;9.80;99.90;;;;;;5095276;28;20417;-84
2021/12/16 09:46:55;;;;;;;10.93;6.70;;;10.00;99.90;;;;;;5094809;28;20494;-85
2021/12/16 09:49:21;;;;;;;10.63;6.70;;;10.20;99.90;;;;;;5095259;28;20402;-85
2021/12/16 09:51:50;;;;;;;11.40;6.03;;;10.40;99.90;;;;;;5095155;28;20772;-85
2021/12/16 09:54:23;;;;;;;9.33;5.10;;;10.60;99.90;;;;;;5094856;28;20460;-85
2021/12/16 09:56:50;;;;;;;9.33;4.13;;;10.50;99.90;;;;;;5095259;28;20408;-85
2021/12/16 09:59:18;;;;;;;5.93;2.63;;;10.40;99.90;;;;;;5095435;28;20402;-85
2021/12/16 10:01:47;;;;;;;8.53;3.30;;;10.50;99.90;;;;;;5095040;28;20962;-85
2021/12/16 10:04:15;;;;;;;9.17;3.43;;;10.70;99.90;;;;;;5094686;28;20403;-85
2021/12/16 10:06:42;;;;;;;7.33;2.80;;;10.90;99.90;;;;;;5094932;28;20414;-85
2021/12/16 10:09:10;;;;;;;9.17;3.30;;;11.00;99.90;;;;;;5095063;28;20496;-85
2021/12/16 10:11:39;;;;;;;4.07;2.50;;;10.80;99.90;;;;;;5094779;28;20430;-85
2021/12/16 10:14:20;;;;;;;8.13;3.93;;;10.70;99.90;;;;;;5094707;28;20502;-85
2021/12/16 10:19:34;;;;;;;7.60;3.40;;;10.70;99.90;;;;;;5094760;28;20431;-85
2021/12/16 10:22:16;;;;;;;6.13;4.07;;;10.50;99.90;;;;;;5094594;28;20420;-85
2021/12/16 10:24:42;;;;;;;7.20;2.80;;;10.50;99.90;;;;;;5094518;28;20460;-85
2021/12/16 10:27:16;;;;;;;5.47;2.53;;;10.50;99.90;;;;;;5094511;28;20912;-85
2021/12/16 10:29:46;;;;;;;7.53;3.27;;;10.50;99.90;;;;;;5094612;28;20169;-85
2021/12/16 10:32:38;;;;;;;7.10;3.10;;;10.50;99.90;;;;;;5094054;28;20413;-85
2021/12/16 10:35:18;;;;;;;5.50;3.20;;;10.40;99.90;;;;;;5086344;28;20532;-85
2021/12/16 10:37:52;;;;;;;8.63;3.00;;;10.70;99.90;;;;;;5094130;28;20435;-85
2021/12/16 10:40:42;;;;;;;4.87;2.67;;;11.30;99.90;;;;;;5094142;28;20426;-85
2021/12/16 10:43:24;;;;;;;5.33;2.33;;;11.50;99.90;;;;;;5094381;28;20398;-85
2021/12/16 10:45:57;;;;;;;4.83;2.23;;;11.00;99.90;;;;;;5092917;28;20496;-85
2021/12/16 10:48:32;;;;;;;4.60;2.60;;;10.90;99.90;;;;;;5094222;28;20765;-85
2021/12/16 10:51:10;;;;;;;6.20;2.40;;;10.90;99.90;;;;;;5092992;28;20425;-87
2021/12/16 10:53:53;;;;;;;8.30;4.23;;;10.80;99.90;;;;;;5089939;28;20414;-88
2021/12/16 10:56:31;;;;;;;5.43;2.73;;;10.60;99.90;;;;;;5093959;28;20414;-89
2021/12/16 10:59:08;;;;;;;8.00;2.40;;;10.50;99.90;;;;;;5112058;28;20420;-88
2021/12/16 11:01:42;;;;;;;8.20;3.70;;;10.60;99.90;;;;;;5089579;28;20434;-87
2021/12/16 11:05:00;;;;;;;5.97;3.83;;;10.60;99.90;;;;;;5092819;28;20433;-87
2021/12/16 11:07:34;;;;;;;5.33;1.80;;;10.50;99.90;;;;;;5007550;28;20433;-87
2021/12/16 11:10:18;;;;;;;5.93;2.07;;;10.60;99.90;;;;;;5070268;28;20416;-88
2021/12/16 11:12:54;;;;;;;3.83;1.70;;;11.70;99.90;;;;;;5072545;28;20543;-89
2021/12/16 11:15:25;;;;;;;5.73;2.00;;;12.60;99.90;;;;;;5071598;28;20992;-86
2021/12/16 11:18:02;;;;;;;4.40;1.67;;;12.10;99.90;;;;;;5070481;28;20434;-87
2021/12/16 11:20:36;;;;;;;5.30;1.37;;;12.40;99.90;;;;;;5087909;28;20419;-86
2021/12/16 11:23:32;;;;;;;5.47;2.27;;;11.90;99.90;;;;;;5071129;28;20424;-90
2021/12/16 11:26:05;;;;;;;7.20;2.20;;;11.60;99.90;;;;;;5085890;28;20566;-87
2021/12/16 11:28:37;;;;;;;4.57;1.53;;;11.30;99.90;;;;;;5071230;28;20769;-87
2021/12/16 11:31:10;;;;;;;6.73;1.77;;;11.00;99.90;;;;;;5087404;28;20933;-88
2021/12/16 11:33:40;;;;;;;4.30;1.90;;;11.20;99.90;;;;;;5072078;28;20419;-87
2021/12/16 11:36:20;;;;;;;5.37;2.57;;;11.30;99.90;;;;;;5091774;28;20973;-87
2021/12/16 11:38:51;;;;;;;8.43;4.03;;;11.00;99.90;;;;;;5092118;28;20967;-87
2021/12/16 11:41:19;;;;;;;4.53;2.00;;;10.90;99.90;;;;;;5090809;28;21018;-88
2021/12/16 11:43:48;;;;;;;5.70;3.47;;;10.80;99.90;;;;;;5091533;28;20474;-89
2021/12/16 11:46:22;;;;;;;6.17;3.93;;;10.90;99.90;;;;;;5092238;28;20398;-88
2021/12/16 11:48:50;;;;;;;4.40;2.73;;;10.90;99.90;;;;;;5092293;28;20499;-89
2021/12/16 11:51:21;;;;;;;8.43;4.53;;;11.20;99.90;;;;;;5090788;28;20425;-87
2021/12/16 11:53:55;;;;;;;11.43;5.20;;;11.10;99.90;;;;;;5084021;28;20454;-90
2021/12/16 11:56:37;;;;;;;7.00;4.83;;;11.10;99.90;;;;;;5076193;28;20437;-87
2021/12/16 11:59:04;;;;;;;6.63;3.73;;;11.50;99.90;;;;;;5076058;28;20928;-88
2021/12/16 12:01:30;;;;;;;16.07;4.87;;;11.60;99.90;;;;;;5083958;28;20444;-88
2021/12/16 12:04:08;;;;;;;6.97;3.90;;;11.50;99.90;;;;;;5090788;28;20425;-87
2021/12/16 12:06:36;;;;;;;7.90;3.73;;;11.20;99.90;;;;;;5088632;28;20482;-87
2021/12/16 12:09:06;;;;;;;12.23;3.43;;;11.30;99.90;;;;;;5080853;28;20934;-88
2021/12/16 12:11:35;;;;;;;7.63;3.47;;;12.20;99.90;;;;;;5086812;28;20441;-87
2021/12/16 12:14:20;;;;;;;5.60;2.10;;;12.00;99.90;;;;;;5070476;28;20935;-87
2021/12/16 12:16:49;;;;;;;9.30;3.50;;;11.20;99.90;;;;;;5083445;28;20536;-89
2021/12/16 12:19:19;;;;;;;8.53;4.27;;;11.00;99.90;;;;;;5071666;28;20914;-88
2021/12/16 12:22:00;;;;;;;9.67;2.50;;;11.00;99.90;;;;;;5071578;28;20506;-87
2021/12/16 12:24:32;;;;;;;4.93;1.20;;;10.60;99.90;;;;;;5071702;28;20421;-87
2021/12/16 12:27:29;;;;;;;10.30;2.50;;;10.30;99.90;;;;;;5074610;28;20506;-88
2021/12/16 12:30:00;;;;;;;8.80;2.90;;;10.10;99.90;;;;;;5062234;28;20945;-88
2021/12/16 12:32:37;;;;;;;6.83;1.67;;;10.00;99.90;;;;;;5073963;28;20415;-89
2021/12/16 12:35:10;;;;;;;4.73;1.43;;;10.00;99.90;;;;;;5074194;28;20468;-87
2021/12/16 12:37:40;;;;;;;4.47;2.07;;;10.00;99.90;;;;;;5074553;28;20456;-88
2021/12/16 12:40:20;;;;;;;8.03;1.90;;;10.00;99.90;;;;;;5086754;28;20438;-88
2021/12/16 12:42:48;;;;;;;7.53;2.27;;;10.30;99.90;;;;;;5095693;28;20414;-87
2021/12/16 12:45:16;;;;;;;10.43;3.00;;;10.50;99.90;;;;;;5095576;28;21149;-90
2021/12/16 12:47:51;;;;;;;4.23;0.97;;;10.70;99.90;;;;;;5095070;28;20419;-89
2021/12/16 12:50:24;;;;;;;4.57;1.20;;;10.80;99.90;;;;;;5094305;28;20421;-87
2021/12/16 12:52:52;;;;;;;5.73;2.60;;;10.80;99.90;;;;;;5095189;28;20462;-87
2021/12/16 12:55:30;;;;;;;5.80;1.07;;;10.60;99.90;;;;;;5085058;28;20479;-87
2021/12/16 12:58:05;;;;;;;10.83;1.47;;;10.30;99.90;;;;;;5074513;28;20434;-89
2021/12/16 13:00:34;;;;;;;7.23;1.50;;;10.00;99.90;;;;;;5095278;28;20814;-88
2021/12/16 13:03:04;;;;;;;7.33;1.43;;;9.70;99.90;;;;;;5095248;28;20492;-92
2021/12/16 13:05:30;;;;;;;6.93;1.43;;;9.60;99.90;;;;;;5096571;28;20424;-93
2021/12/16 13:08:03;;;;;;;6.80;1.93;;;9.60;99.90;;;;;;5095247;28;20411;-89
2021/12/16 13:10:41;;;;;;;8.20;2.53;;;9.60;99.90;;;;;;5103068;28;20861;-90
2021/12/16 13:13:29;;;;;;;8.00;2.33;;;9.70;99.90;;;;;;5116376;28;20398;-90
2021/12/16 13:16:20;;;;;;;5.57;1.03;;;9.90;99.90;;;;;;5114899;28;20468;-90
2021/12/16 13:25:32;;;;;;;4.73;0.90;;;9.70;99.90;;;;;;5086825;28;20418;-90
2021/12/16 13:27:48;;;;;;;3.13;0.90;;;10.00;99.90;;;;;;5095403;28;20442;-89
2021/12/16 13:30:32;;;;;;;4.67;1.00;;;10.00;99.90;;;;;;5096124;28;20412;-90
2021/12/16 13:33:54;;;;;;;7.03;1.83;;;10.00;99.90;;;;;;5092863;28;20426;-86
2021/12/16 13:36:06;;;;;;;10.20;0.90;;;9.80;99.90;;;;;;5085878;28;20898;-87
2021/12/16 13:38:43;;;;;;;13.17;1.97;;;9.80;99.90;;;;;;5091596;28;20463;-86
2021/12/16 13:41:15;;;;;;;5.90;1.70;;;9.80;99.90;;;;;;5095537;28;20761;-86
2021/12/16 13:44:08;;;;;;;4.57;1.27;;;9.90;99.90;;;;;;5088682;28;20919;-86
2021/12/16 13:47:09;;;;;;;6.00;1.93;;;9.60;99.90;;;;;;5074881;28;20411;-86
2021/12/16 14:03:48;;;;;;;5.70;1.00;;;9.00;99.90;;;;;;5074963;28;20949;-86
2021/12/16 14:06:31;;;;;;;4.43;2.50;;;9.00;99.90;;;;;;5077591;28;20438;-86
2021/12/16 14:09:16;;;;;;;5.83;1.60;;;9.10;99.90;;;;;;5083973;28;20423;-86
2021/12/16 14:23:38;;;;;;;4.77;1.73;;;8.80;99.90;;;;;;5094958;28;20494;-86
2021/12/16 14:34:51;;;;;;;7.53;1.37;;;8.60;99.90;;;;;;5105710;28;20457;-86
2021/12/16 14:37:17;;;;;;;11.27;2.30;;;8.60;99.90;;;;;;5093634;28;20195;-89
2021/12/16 14:42:49;;;;;;;5.70;1.30;;;8.40;99.90;;;;;;5094348;28;20480;-88
2021/12/16 14:50:29;;;;;;;7.03;1.53;;;8.20;99.90;;;;;;5074342;28;20419;-89
2021/12/16 14:52:57;;;;;;;12.80;2.13;;;8.20;99.90;;;;;;5072735;28;20429;-91
2021/12/16 14:55:23;;;;;;;6.20;1.80;;;8.10;99.90;;;;;;5073329;28;21035;-90
2021/12/16 14:57:52;;;;;;;6.40;1.00;;;8.00;99.90;;;;;;5074581;28;20471;-89
2021/12/16 15:00:41;;;;;;;10.27;2.23;;;8.00;99.90;;;;;;5072821;28;20417;-89
2021/12/16 15:03:18;;;;;;;6.33;1.70;;;7.90;99.90;;;;;;5073178;28;20407;-94
2021/12/16 15:05:48;;;;;;;15.63;1.20;;;8.00;99.90;;;;;;5074851;28;20410;-91
2021/12/16 15:08:32;;;;;;;5.43;1.20;;;8.00;99.90;;;;;;5074254;28;20418;-91
2021/12/16 15:11:00;;;;;;;8.50;1.57;;;7.90;99.90;;;;;;5073352;28;20406;-91
2021/12/16 15:13:42;;;;;;;7.33;1.57;;;7.90;99.90;;;;;;5074608;28;20425;-91
2021/12/16 15:16:44;;;;;;;9.30;1.83;;;8.00;99.90;;;;;;5074213;28;20434;-91
2021/12/16 15:36:51;;;;;;;7.30;1.40;;;8.10;99.90;;;;;;5094344;28;20576;-86
2021/12/16 15:44:47;;;;;;;8.53;1.23;;;8.00;99.90;;;;;;5093552;28;20458;-87
2021/12/16 15:47:13;;;;;;;6.73;1.70;;;7.80;99.90;;;;;;5091748;28;20794;-88
2021/12/16 15:49:38;;;;;;;8.50;2.30;;;7.60;99.90;;;;;;5091859;28;20424;-86
2021/12/16 15:52:04;;;;;;;6.13;0.87;;;7.60;99.90;;;;;;5092973;28;20643;-87
2021/12/16 15:54:34;;;;;;;7.23;1.90;;;7.50;99.90;;;;;;5092928;28;20213;-87
2021/12/16 15:57:00;;;;;;;2.77;1.37;;;7.40;99.90;;;;;;5091899;28;20420;-88
2021/12/16 15:59:28;;;;;;;3.90;1.87;;;7.40;99.90;;;;;;5093592;28;20828;-90
2021/12/16 16:01:55;;;;;;;8.33;2.43;;;7.30;99.90;;;;;;5102139;28;20173;-89
2021/12/16 16:04:28;;;;;;;10.70;2.30;;;7.20;99.90;;;;;;5104996;28;20414;-88
2021/12/16 16:06:57;;;;;;;7.30;2.67;;;7.10;99.90;;;;;;5088488;28;20431;-90
2021/12/16 16:09:27;;;;;;;5.40;2.10;;;7.30;99.90;;;;;;5081707;28;20450;-86
2021/12/16 16:11:56;;;;;;;8.20;2.00;;;7.20;99.90;;;;;;5105568;28;20457;-87
2021/12/16 16:14:24;;;;;;;5.40;1.87;;;7.20;99.90;;;;;;5104589;28;21072;-87
2021/12/16 16:16:56;;;;;;;9.03;2.83;;;7.20;99.90;;;;;;5092967;28;20436;-87
2021/12/16 16:19:29;;;;;;;9.10;2.47;;;7.20;99.90;;;;;;5078722;28;20493;-89
2021/12/16 16:21:57;;;;;;;10.97;2.50;;;7.20;99.90;;;;;;5081336;28;20921;-86
2021/12/16 16:24:32;;;;;;;6.23;2.60;;;7.20;99.90;;;;;;5085743;28;20432;-86
2021/12/16 16:27:01;;;;;;;6.70;1.60;;;7.30;99.90;;;;;;5078536;28;20413;-87
2021/12/16 16:29:29;;;;;;;9.20;1.97;;;7.30;99.90;;;;;;5078350;28;20416;-86
2021/12/16 16:31:56;;;;;;;5.90;1.87;;;7.30;99.90;;;;;;5077184;28;20523;-87
2021/12/16 16:34:38;;;;;;;7.93;1.47;;;7.40;99.90;;;;;;5085846;28;20474;-87
2021/12/16 16:37:06;;;;;;;6.10;2.20;;;7.40;99.90;;;;;;5097592;28;20532;-87
2021/12/16 16:39:35;;;;;;;18.13;3.30;;;7.50;99.90;;;;;;5109521;28;20523;-88
2021/12/16 16:42:07;;;;;;;7.13;2.60;;;7.50;99.90;;;;;;5118774;27;20410;-89
2021/12/16 16:44:34;;;;;;;9.40;2.17;;;7.50;99.90;;;;;;5118681;27;20433;-86
2021/12/16 16:47:15;;;;;;;6.63;2.63;;;7.30;99.90;;;;;;5116967;28;20422;-86
2021/12/16 16:49:49;;;;;;;10.30;2.13;;;7.40;99.90;;;;;;5118496;27;20479;-85
2021/12/16 16:52:33;;;;;;;8.83;2.50;;;7.40;99.90;;;;;;5117782;27;20509;-87